Time;durP1;ratioP1;P1;durP2;ratioP2;P2;SDS_P1;SDS_P2;PMS_P1;PMS_P2;Temp;Humidity;BMP_temperature;BMP_pressure;BME280_temperature;BME280_humidity;BME280_pressure;Samples;Min_cycle;Max_cycle;Signal;HPM_P1;HPM_P2
2022/01/05 00:02:10;;;;;;;0.30;0.30;;;;;;;-139.48;100.00;61774.03;4974760;28;20134;-72
2022/01/05 00:04:54;;;;;;;0.45;0.40;;;;;;;-139.48;100.00;61774.03;4960698;28;20075;-72
2022/01/05 00:07:38;;;;;;;0.45;0.40;;;;;;;-139.48;100.00;61774.03;4974373;28;20081;-70
2022/01/05 00:10:22;;;;;;;0.60;0.60;;;;;;;-139.48;100.00;61774.03;4974602;28;20058;-72
2022/01/05 00:13:06;;;;;;;;;;;;;;;-139.48;100.00;61774.03;4960986;28;20097;-72
2022/01/05 00:15:50;;;;;;;1.02;0.50;;;;;;;-139.48;100.00;61774.03;4974149;28;19941;-72
2022/01/05 00:18:33;;;;;;;;;;;;;;;-139.48;100.00;61774.03;4975841;28;20089;-71
2022/01/05 00:21:17;;;;;;;0.60;0.60;;;;;;;-139.48;100.00;61774.03;4975191;28;20301;-71
2022/01/05 00:24:02;;;;;;;0.40;0.40;;;;;;;-139.48;100.00;61774.03;4975089;28;20292;-71
2022/01/05 00:26:46;;;;;;;0.93;0.57;;;;;;;-139.48;100.00;61774.03;4974251;28;20058;-72
2022/01/05 00:29:30;;;;;;;;;;;;;;;-139.48;100.00;61774.03;4974900;28;20058;-72
2022/01/05 00:32:14;;;;;;;1.15;0.50;;;;;;;-139.48;100.00;61774.03;4974214;28;19952;-71
2022/01/05 00:34:58;;;;;;;1.00;0.60;;;;;;;-139.48;100.00;61774.03;4974111;28;20058;-72
2022/01/05 00:37:41;;;;;;;0.93;0.50;;;;;;;-139.48;100.00;61774.03;4960424;28;20054;-72
2022/01/05 00:40:25;;;;;;;;;;;;;;;-139.48;100.00;61774.03;4976051;28;20045;-71
2022/01/05 00:43:09;;;;;;;0.60;0.60;;;;;;;-139.48;100.00;61774.03;4975598;28;20287;-71
2022/01/05 00:45:53;;;;;;;1.13;0.60;;;;;;;-139.48;100.00;61774.03;4974341;28;20319;-71
2022/01/05 00:48:37;;;;;;;1.05;0.60;;;;;;;-139.48;100.00;61774.03;4960635;28;20096;-71
2022/01/05 00:51:21;;;;;;;0.60;0.60;;;;;;;-139.48;100.00;61774.03;4973960;28;20050;-72
2022/01/05 00:54:05;;;;;;;1.13;0.50;;;;;;;-139.48;100.00;61774.03;4973632;28;20050;-71
2022/01/05 00:56:49;;;;;;;1.60;1.17;;;;;;;-139.48;100.00;61774.03;4973524;28;20474;-71
2022/01/05 00:59:33;;;;;;;0.68;0.68;;;;;;;-139.48;100.00;61774.03;4973902;28;20085;-71
2022/01/05 01:02:17;;;;;;;1.58;0.80;;;;;;;-139.48;100.00;61774.03;4974098;28;20447;-71
2022/01/05 01:05:01;;;;;;;2.58;0.90;;;;;;;-139.48;100.00;61774.03;4973574;28;20081;-71
2022/01/05 01:07:46;;;;;;;;;;;;;;;-139.48;100.00;61774.03;4974813;28;20482;-71
2022/01/05 01:10:30;;;;;;;1.63;1.00;;;;;;;-139.48;100.00;61774.03;4974597;28;19936;-71
2022/01/05 01:13:16;;;;;;;1.30;0.90;;;;;;;-139.48;100.00;61774.03;4974571;28;20136;-71
2022/01/05 01:16:00;;;;;;;1.33;1.23;;;;;;;-139.48;100.00;61774.03;4974074;28;20161;-71
2022/01/05 01:18:44;;;;;;;;;;;;;;;-139.48;100.00;61774.03;4973515;28;20082;-71
2022/01/05 01:21:28;;;;;;;0.90;0.83;;;;;;;-139.48;100.00;61774.03;4973420;28;19964;-71
2022/01/05 01:24:12;;;;;;;;;;;;;;;-139.48;100.00;61774.03;4973546;28;20058;-71
2022/01/05 01:26:56;;;;;;;2.70;0.90;;;;;;;-139.48;100.00;61774.03;4973110;28;20018;-71
2022/01/05 01:29:40;;;;;;;0.73;0.73;;;;;;;-139.48;100.00;61774.03;4974310;28;20593;-72
2022/01/05 01:32:24;;;;;;;2.08;0.93;;;;;;;-139.48;100.00;61774.03;4959589;28;20410;-71
2022/01/05 01:35:08;;;;;;;1.00;0.90;;;;;;;-139.48;100.00;61774.03;4973084;28;20407;-72
2022/01/05 01:37:55;;;;;;;2.45;1.05;;;;;;;-139.48;100.00;61774.03;4974249;28;20050;-71
2022/01/05 01:40:39;;;;;;;1.02;0.93;;;;;;;-139.48;100.00;61774.03;4972994;28;20064;-71
2022/01/05 01:43:23;;;;;;;2.05;0.90;;;;;;;-139.48;100.00;61774.03;4972913;28;20110;-72
2022/01/05 01:46:08;;;;;;;1.25;1.15;;;;;;;-139.48;100.00;61774.03;4959689;28;20101;-71
2022/01/05 01:48:52;;;;;;;1.52;1.25;;;;;;;-139.48;100.00;61774.03;4973029;28;20136;-72
2022/01/05 01:51:36;;;;;;;1.15;1.05;;;;;;;-139.48;100.00;61774.03;4972925;28;20101;-72
2022/01/05 01:54:20;;;;;;;1.20;1.10;;;;;;;-139.48;100.00;61774.03;4972766;28;20179;-72
2022/01/05 01:57:06;;;;;;;1.50;1.40;;;;;;;-139.48;100.00;61774.03;4978161;28;20070;-72
2022/01/05 01:59:50;;;;;;;1.60;1.10;;;;;;;-139.48;100.00;61774.03;4963382;28;20053;-72
2022/01/05 02:02:36;;;;;;;2.25;1.42;;;;;;;-139.48;100.00;61774.03;4977934;28;20367;-72
2022/01/05 02:05:20;;;;;;;1.67;1.50;;;;;;;-139.48;100.00;61774.03;4962941;28;20231;-72
2022/01/05 02:08:04;;;;;;;2.20;1.80;;;;;;;-139.48;100.00;61774.03;4976821;28;20046;-71
2022/01/05 02:10:49;;;;;;;4.22;2.13;;;;;;;-139.48;100.00;61774.03;4977638;28;20069;-72
2022/01/05 02:13:33;;;;;;;2.28;1.95;;;;;;;-139.48;100.00;61774.03;4977755;28;20125;-71
2022/01/05 02:16:21;;;;;;;;;;;;;;;-139.48;100.00;61774.03;5000942;23;20085;-71
2022/01/05 02:19:05;;;;;;;3.60;2.60;;;;;;;-139.48;100.00;61774.03;4981302;28;19944;-72
2022/01/05 02:21:48;;;;;;;;;;;;;;;-139.48;100.00;61774.03;4996493;28;20053;-70
2022/01/05 02:24:32;;;;;;;2.72;2.35;;;;;;;-139.48;100.00;61774.03;4997065;28;19932;-72
2022/01/05 02:27:16;;;;;;;;;;;;;;;-139.48;100.00;61774.03;4976591;28;20077;-71
2022/01/05 02:30:00;;;;;;;6.35;2.92;;;;;;;-139.48;100.00;61774.03;4962775;28;19921;-71
2022/01/05 02:32:44;;;;;;;3.78;3.10;;;;;;;-139.48;100.00;61774.03;4977391;28;20506;-71
2022/01/05 02:35:28;;;;;;;3.45;2.60;;;;;;;-139.48;100.00;61774.03;4977151;28;20222;-71
2022/01/05 02:38:20;;;;;;;3.03;2.60;;;;;;;-139.48;100.00;61774.03;4976214;28;20391;-71
2022/01/05 02:41:09;;;;;;;2.65;2.25;;;;;;;-139.48;100.00;61774.03;4962325;28;20085;-71
2022/01/05 02:43:53;;;;;;;2.70;2.40;;;;;;;-139.48;100.00;61774.03;4975868;28;20097;-70
2022/01/05 02:46:37;;;;;;;3.67;2.35;;;;;;;-139.48;100.00;61774.03;4962398;28;20113;-72
2022/01/05 02:49:21;;;;;;;2.88;2.03;;;;;;;-139.48;100.00;61774.03;4976103;28;20065;-71
2022/01/05 02:52:05;;;;;;;2.28;2.08;;;;;;;-139.48;100.00;61774.03;4976000;28;20058;-71
2022/01/05 02:54:49;;;;;;;3.22;1.90;;;;;;;-139.48;100.00;61774.03;4975964;28;20049;-71
2022/01/05 02:57:33;;;;;;;2.55;1.65;;;;;;;-139.48;100.00;61774.03;4976782;28;20050;-71
2022/01/05 03:00:17;;;;;;;1.77;1.60;;;;;;;-139.48;100.00;61774.03;4976806;28;20049;-71
2022/01/05 03:03:01;;;;;;;2.35;1.90;;;;;;;-139.48;100.00;61774.03;4975807;28;20505;-71
2022/01/05 03:05:45;;;;;;;1.60;1.50;;;;;;;-139.48;100.00;61774.03;4976695;28;20468;-71
2022/01/05 03:08:30;;;;;;;2.17;1.75;;;;;;;-139.48;100.00;61774.03;4975705;28;20565;-71
2022/01/05 03:11:13;;;;;;;2.95;1.80;;;;;;;-139.48;100.00;61774.03;4961769;28;20054;-71
2022/01/05 03:13:57;;;;;;;1.50;1.40;;;;;;;-139.48;100.00;61774.03;4976927;28;20553;-70
2022/01/05 03:16:41;;;;;;;4.20;1.67;;;;;;;-139.48;100.00;61774.03;4976143;28;20934;-71
2022/01/05 03:19:25;;;;;;;3.00;1.73;;;;;;;-139.48;100.00;61774.03;4976835;28;20627;-71
2022/01/05 03:22:09;;;;;;;;;;;;;;;-139.48;100.00;61774.03;4975622;28;20078;-71
2022/01/05 03:24:53;;;;;;;2.33;2.00;;;;;;;-139.48;100.00;61774.03;4976284;28;19920;-71
2022/01/05 03:27:37;;;;;;;3.67;2.22;;;;;;;-139.48;100.00;61774.03;4975069;28;20303;-71
2022/01/05 03:30:26;;;;;;;3.00;2.03;;;;;;;-139.48;100.00;61774.03;4975131;28;20053;-70
2022/01/05 03:33:19;;;;;;;2.92;2.10;;;;;;;-139.48;100.00;61774.03;4961559;28;20407;-70
2022/01/05 03:36:03;;;;;;;2.80;1.90;;;;;;;-139.48;100.00;61774.03;4961486;28;20101;-70
2022/01/05 03:38:47;;;;;;;3.00;1.88;;;;;;;-139.48;100.00;61774.03;4976175;28;20065;-70
2022/01/05 03:41:31;;;;;;;2.95;2.38;;;;;;;-139.48;100.00;61774.03;4975976;28;20065;-71
2022/01/05 03:44:15;;;;;;;2.45;1.70;;;;;;;-139.48;100.00;61774.03;4961542;28;20129;-70
2022/01/05 03:46:59;;;;;;;3.00;1.70;;;;;;;-139.48;100.00;61774.03;4974812;28;20050;-70
2022/01/05 03:49:43;;;;;;;3.70;1.60;;;;;;;-139.48;100.00;61774.03;4961273;28;20053;-70
2022/01/05 03:52:26;;;;;;;2.22;1.50;;;;;;;-139.48;100.00;61774.03;4974934;28;20403;-70
2022/01/05 03:55:10;;;;;;;1.50;1.40;;;;;;;-139.48;100.00;61774.03;4975956;28;20073;-71
2022/01/05 03:57:54;;;;;;;2.35;1.90;;;;;;;-139.48;100.00;61774.03;4961374;28;20085;-70
2022/01/05 04:00:41;;;;;;;;;;;;;;;-139.48;100.00;61774.03;4976014;28;20098;-71
2022/01/05 04:03:25;;;;;;;2.10;1.20;;;;;;;-139.48;100.00;61774.03;4975546;28;19936;-71
2022/01/05 04:06:08;;;;;;;;;;;;;;;-139.48;100.00;61774.03;4975121;28;20054;-70
2022/01/05 04:08:52;;;;;;;1.53;1.10;;;;;;;-139.48;100.00;61774.03;4974604;28;19933;-70
2022/01/05 04:11:36;;;;;;;;;;;;;;;-139.48;100.00;61774.03;4976031;28;20423;-70
2022/01/05 04:14:20;;;;;;;2.80;0.90;;;;;;;-139.48;100.00;61774.03;4975598;28;19921;-70
2022/01/05 04:17:04;;;;;;;1.73;0.70;;;;;;;-139.48;100.00;61774.03;4974959;28;20097;-70
2022/01/05 04:19:48;;;;;;;0.88;0.50;;;;;;;-139.48;100.00;61774.03;4960762;28;20054;-71
2022/01/05 04:22:32;;;;;;;0.40;0.40;;;;;;;-139.48;100.00;61774.03;4960526;28;20210;-71
2022/01/05 04:25:16;;;;;;;0.50;0.45;;;;;;;-139.48;100.00;61774.03;4974399;28;20197;-70
2022/01/05 04:28:02;;;;;;;0.57;0.40;;;;;;;-139.48;100.00;61774.03;4974007;28;20062;-70
2022/01/05 04:30:46;;;;;;;0.20;0.20;;;;;;;-139.48;100.00;61774.03;4960563;28;20093;-70
2022/01/05 04:33:29;;;;;;;;;;;;;;;-139.48;100.00;61774.03;4975558;28;20054;-70
2022/01/05 04:36:14;;;;;;;0.95;0.40;;;;;;;-139.48;100.00;61774.03;4975021;28;20441;-70
2022/01/05 04:38:57;;;;;;;;;;;;;;;-139.48;100.00;61774.03;4974465;28;20521;-71
2022/01/05 04:41:41;;;;;;;0.30;0.30;;;;;;;-139.48;100.00;61774.03;4975104;28;19924;-70
2022/01/05 04:44:25;;;;;;;0.30;0.30;;;;;;;-139.48;100.00;61774.03;4974996;28;20264;-70
2022/01/05 04:47:10;;;;;;;0.30;0.30;;;;;;;-139.48;100.00;61774.03;4960099;28;20545;-69
2022/01/05 04:49:54;;;;;;;0.30;0.30;;;;;;;-139.48;100.00;61774.03;4974894;28;20506;-71
2022/01/05 04:52:38;;;;;;;0.47;0.40;;;;;;;-139.48;100.00;61774.03;4974604;28;20053;-70
2022/01/05 04:55:22;;;;;;;0.50;0.40;;;;;;;-139.48;100.00;61774.03;4960222;28;20132;-70
2022/01/05 04:58:06;;;;;;;0.50;0.50;;;;;;;-139.48;100.00;61774.03;4959983;28;20061;-71
2022/01/05 05:00:50;;;;;;;;;;;;;;;-139.48;100.00;61774.03;4975374;28;20148;-70
2022/01/05 05:03:34;;;;;;;0.52;0.50;;;;;;;-139.48;100.00;61774.03;4960006;28;19968;-70
2022/01/05 05:06:18;;;;;;;0.77;0.43;;;;;;;-139.48;100.00;61774.03;4973272;28;20451;-72
2022/01/05 05:09:01;;;;;;;0.30;0.30;;;;;;;-139.48;100.00;61774.03;4959955;28;20145;-71
2022/01/05 05:11:46;;;;;;;0.52;0.40;;;;;;;-139.48;100.00;61774.03;4959615;28;20050;-71
2022/01/05 05:14:30;;;;;;;2.40;0.60;;;;;;;-139.48;100.00;61774.03;4973739;28;20548;-70
2022/01/05 05:17:14;;;;;;;;;;;;;;;-139.48;100.00;61774.03;4974662;28;20069;-70
2022/01/05 05:19:57;;;;;;;0.60;0.55;;;;;;;-139.48;100.00;61774.03;4974359;28;19925;-71
2022/01/05 05:22:41;;;;;;;;;;;;;;;-139.48;100.00;61774.03;4974513;28;20050;-70
2022/01/05 05:25:25;;;;;;;0.70;0.30;;;;;;;-139.48;100.00;61774.03;4973345;28;19921;-70
2022/01/05 05:28:09;;;;;;;;;;;;;;;-139.48;100.00;61774.03;4974492;28;20100;-71
2022/01/05 05:30:53;;;;;;;2.37;0.50;;;;;;;-139.48;100.00;61774.03;4972853;28;19992;-68
2022/01/05 05:33:37;;;;;;;;;;;;;;;-139.48;100.00;61774.03;4973600;28;20303;-70
2022/01/05 05:36:21;;;;;;;2.73;0.63;;;;;;;-139.48;100.00;61774.03;4972839;28;19977;-70
2022/01/05 05:39:05;;;;;;;1.05;0.60;;;;;;;-139.48;100.00;61774.03;4972886;28;20347;-70
2022/01/05 05:41:49;;;;;;;1.65;0.90;;;;;;;-139.48;100.00;61774.03;4973107;28;20105;-71
2022/01/05 05:44:33;;;;;;;;;;;;;;;-139.48;100.00;61774.03;4973269;28;20053;-71
2022/01/05 05:47:17;;;;;;;0.68;0.68;;;;;;;-139.48;100.00;61774.03;4973852;28;19936;-70
2022/01/05 05:50:01;;;;;;;;;;;;;;;-139.48;100.00;61774.03;4974716;28;20183;-70
2022/01/05 05:52:45;;;;;;;1.47;0.77;;;;;;;-139.48;100.00;61774.03;4972836;28;19921;-70
2022/01/05 05:55:29;;;;;;;1.50;1.02;;;;;;;-139.48;100.00;61774.03;4972948;28;20066;-71
2022/01/05 05:58:13;;;;;;;;;;;;;;;-139.48;100.00;61774.03;4973734;28;20133;-70
2022/01/05 06:00:57;;;;;;;1.25;0.80;;;;;;;-139.48;100.00;61774.03;4973769;28;19925;-70
2022/01/05 06:03:41;;;;;;;0.70;0.70;;;;;;;-139.48;100.00;61774.03;4973963;28;20077;-70
2022/01/05 06:06:25;;;;;;;;;;;;;;;-139.48;100.00;61774.03;4974025;28;20045;-70
2022/01/05 06:09:08;;;;;;;1.00;0.90;;;;;;;-139.48;100.00;61774.03;4972822;28;19981;-69
2022/01/05 06:11:52;;;;;;;;;;;;;;;-139.48;100.00;61774.03;4972973;28;20546;-70
2022/01/05 06:14:37;;;;;;;1.02;0.93;;;;;;;-139.48;100.00;61774.03;4972568;28;19940;-70
2022/01/05 06:17:21;;;;;;;3.00;1.05;;;;;;;-139.48;100.00;61774.03;4973445;28;20161;-69
2022/01/05 06:20:05;;;;;;;3.63;1.10;;;;;;;-139.48;100.00;61774.03;4973013;28;20065;-71
2022/01/05 06:22:49;;;;;;;1.60;1.00;;;;;;;-139.48;100.00;61774.03;4958796;28;20183;-70
2022/01/05 06:25:33;;;;;;;1.85;1.13;;;;;;;-139.48;100.00;61774.03;4972941;28;20557;-68
2022/01/05 06:28:17;;;;;;;3.95;1.40;;;;;;;-139.48;100.00;61774.03;4973499;28;20109;-70
2022/01/05 06:31:01;;;;;;;3.08;1.20;;;;;;;-139.48;100.00;61774.03;4972658;28;20045;-70
2022/01/05 06:33:45;;;;;;;;;;;;;;;-139.48;100.00;61774.03;4959350;28;20122;-69
2022/01/05 06:36:29;;;;;;;4.38;1.45;;;;;;;-139.48;100.00;61774.03;4973301;28;20023;-71
2022/01/05 06:39:13;;;;;;;;;;;;;;;-139.48;100.00;61774.03;4973081;28;20563;-70
2022/01/05 06:41:57;;;;;;;9.55;1.80;;;;;;;-139.48;100.00;61774.03;4975600;28;20021;-70
2022/01/05 06:44:41;;;;;;;4.82;1.73;;;;;;;-139.48;100.00;61774.03;4976883;28;20057;-70
2022/01/05 06:47:24;;;;;;;4.05;1.77;;;;;;;-139.48;100.00;61774.03;4976934;28;20046;-70
2022/01/05 06:50:09;;;;;;;6.53;1.73;;;;;;;-139.48;100.00;61774.03;4976836;28;20053;-70
2022/01/05 06:52:57;;;;;;;2.88;1.40;;;;;;;-139.48;100.00;61774.03;4976747;28;20088;-70
2022/01/05 06:55:41;;;;;;;2.85;1.70;;;;;;;-139.48;100.00;61774.03;4962441;28;20054;-71
2022/01/05 06:58:25;;;;;;;6.68;1.58;;;;;;;-139.48;100.00;61774.03;4975581;28;20105;-71
2022/01/05 07:01:09;;;;;;;4.72;1.50;;;;;;;-139.48;100.00;61774.03;4975662;28;20109;-70
2022/01/05 07:03:52;;;;;;;5.35;1.38;;;;;;;-139.48;100.00;61774.03;4975850;28;20050;-69
2022/01/05 07:06:37;;;;;;;3.60;1.38;;;;;;;-139.48;100.00;61774.03;4975678;28;20093;-70
2022/01/05 07:09:20;;;;;;;2.03;1.60;;;;;;;-139.48;100.00;61774.03;4975511;28;20100;-70
2022/01/05 07:12:05;;;;;;;7.70;1.60;;;;;;;-139.48;100.00;61774.03;4975705;28;20130;-71
2022/01/05 07:14:49;;;;;;;3.88;1.63;;;;;;;-139.48;100.00;61774.03;4975561;28;20414;-70
2022/01/05 07:17:33;;;;;;;;;;;;;;;-139.48;100.00;61774.03;4975638;28;20142;-71
2022/01/05 07:20:17;;;;;;;8.07;1.95;;;;;;;-139.48;100.00;61774.03;4961571;28;20296;-68
2022/01/05 07:23:01;;;;;;;6.93;1.85;;;;;;;-139.48;100.00;61774.03;4975478;28;20614;-70
2022/01/05 07:25:45;;;;;;;;;;;;;;;-139.48;100.00;61774.03;4962199;28;20069;-70
2022/01/05 07:28:29;;;;;;;4.20;1.95;;;;;;;-139.48;100.00;61774.03;4975102;28;19921;-70
2022/01/05 07:31:13;;;;;;;2.90;2.03;;;;;;;-139.48;100.00;61774.03;4961502;28;20494;-70
2022/01/05 07:33:56;;;;;;;;;;;;;;;-139.48;100.00;61774.03;4975392;28;20050;-70
2022/01/05 07:36:41;;;;;;;3.80;1.90;;;;;;;-139.48;100.00;61774.03;4961433;28;19925;-69
2022/01/05 07:39:25;;;;;;;7.30;1.98;;;;;;;-139.48;100.00;61774.03;4976203;28;20093;-70
2022/01/05 07:42:09;;;;;;;4.88;2.10;;;;;;;-139.48;100.00;61774.03;4975881;28;20415;-70
2022/01/05 07:44:53;;;;;;;;;;;;;;;-139.48;100.00;61774.03;4961713;28;20141;-69
2022/01/05 07:47:37;;;;;;;5.18;2.10;;;;;;;-139.48;100.00;61774.03;4975235;28;19984;-70
2022/01/05 07:50:21;;;;;;;4.72;1.95;;;;;;;-139.48;100.00;61774.03;4961378;28;20049;-69
2022/01/05 07:53:05;;;;;;;5.65;1.92;;;;;;;-139.48;100.00;61774.03;4975017;28;20054;-70
2022/01/05 07:55:49;;;;;;;;;;;;;;;-139.48;100.00;61774.03;4975223;28;20513;-70
2022/01/05 07:58:33;;;;;;;4.47;2.10;;;;;;;-139.48;100.00;61774.03;4975812;28;19920;-69
2022/01/05 08:01:20;;;;;;;;;;;;;;;-139.48;100.00;61774.03;4961282;28;20806;-69
2022/01/05 08:04:04;;;;;;;7.80;2.40;;;;;;;-139.48;100.00;61774.03;4974736;28;20012;-69
2022/01/05 08:06:48;;;;;;;5.90;2.00;;;;;;;-139.48;100.00;61774.03;4961220;28;20510;-68
2022/01/05 08:09:32;;;;;;;3.42;1.67;;;;;;;-139.48;100.00;61774.03;4975690;28;20054;-70
2022/01/05 08:12:15;;;;;;;;;;;;;;;-139.48;100.00;61774.03;4975828;28;20582;-70
2022/01/05 08:14:59;;;;;;;6.35;1.63;;;;;;;-139.48;100.00;61774.03;4960800;28;20016;-69
2022/01/05 08:17:43;;;;;;;7.63;1.85;;;;;;;-139.48;100.00;61774.03;4976849;28;20106;-65
2022/01/05 08:20:27;;;;;;;2.78;1.42;;;;;;;-139.48;100.00;61774.03;4975454;28;20060;-70
2022/01/05 08:23:29;;;;;;;8.82;1.90;;;;;;;-139.48;100.00;61774.03;4960656;28;20433;-70
2022/01/05 08:26:14;;;;;;;5.63;1.88;;;;;;;-139.48;100.00;61774.03;4960607;28;20050;-69
2022/01/05 08:28:58;;;;;;;5.05;1.77;;;;;;;-139.48;100.00;61774.03;4960334;28;20061;-70
2022/01/05 08:31:41;;;;;;;;;;;;;;;-139.48;100.00;61774.03;4975696;28;20049;-70
2022/01/05 08:34:25;;;;;;;5.95;1.73;;;;;;;-139.48;100.00;61774.03;4975226;28;19937;-70
2022/01/05 08:37:10;;;;;;;6.47;1.65;;;;;;;-139.48;100.00;61774.03;4975007;28;20222;-69
2022/01/05 08:39:54;;;;;;;5.43;1.50;;;;;;;-139.48;100.00;61774.03;4975063;28;20057;-70
2022/01/05 08:42:37;;;;;;;;;;;;;;;-139.48;100.00;61774.03;4974355;28;20054;-70
2022/01/05 08:45:22;;;;;;;6.72;1.85;;;;;;;-139.48;100.00;61774.03;4973820;28;19921;-70
2022/01/05 08:48:06;;;;;;;5.60;1.70;;;;;;;-139.48;100.00;61774.03;4974884;28;20070;-70
2022/01/05 08:50:51;;;;;;;4.15;1.70;;;;;;;-139.48;100.00;61774.03;4974975;28;20550;-70
2022/01/05 08:53:35;;;;;;;3.28;1.35;;;;;;;-139.48;100.00;61774.03;4974826;28;20050;-70
2022/01/05 08:56:21;;;;;;;6.60;2.15;;;;;;;-139.48;100.00;61774.03;4959891;28;20054;-71
2022/01/05 08:59:05;;;;;;;5.45;1.67;;;;;;;-139.48;100.00;61774.03;4960092;28;20053;-70
2022/01/05 09:01:49;;;;;;;8.25;1.60;;;;;;;-139.48;100.00;61774.03;4973687;28;20057;-70
2022/01/05 09:04:33;;;;;;;5.15;1.90;;;;;;;-139.48;100.00;61774.03;4975195;28;20117;-72
2022/01/05 09:07:17;;;;;;;10.52;2.38;;;;;;;-139.48;100.00;61774.03;4974527;28;20525;-71
2022/01/05 09:10:04;;;;;;;5.32;1.90;;;;;;;-139.48;100.00;61774.03;4961073;28;20050;-72
2022/01/05 09:12:48;;;;;;;3.63;1.60;;;;;;;-139.48;100.00;61774.03;4975310;28;20049;-76
2022/01/05 09:17:37;;;;;;;5.20;1.92;;;;;;;5.74;66.08;99836.59;5072576;28;20375;-72
2022/01/05 09:20:20;;;;;;;12.30;2.30;;;;;;;4.95;71.07;99851.81;5069854;28;20117;-71
2022/01/05 09:23:04;;;;;;;4.90;1.83;;;;;;;4.79;71.21;99867.13;5069562;28;20071;-72
2022/01/05 09:25:48;;;;;;;7.63;2.08;;;;;;;4.94;71.00;99860.69;5055025;28;20091;-72
2022/01/05 09:28:33;;;;;;;7.80;1.88;;;;;;;4.79;71.60;99861.03;5068734;28;20074;-71
2022/01/05 09:31:16;;;;;;;10.07;2.65;;;;;;;4.68;70.71;99847.81;5068666;28;20520;-71
2022/01/05 09:34:01;;;;;;;;;;;;;;;4.70;72.58;99862.56;5069482;28;20098;-72
2022/01/05 09:36:49;;;;;;;5.85;2.47;;;;;;;4.74;72.02;99871.09;5068600;28;20510;-72
2022/01/05 09:42:37;;;;;;;6.97;2.38;;;;;;;4.79;71.23;99876.88;5069755;28;20040;-72
2022/01/05 09:45:22;;;;;;;6.75;2.05;;;;;;;4.88;72.40;99871.72;5068583;28;20054;-71
2022/01/05 09:48:48;;;;;;;4.53;2.13;;;;;;;6.16;68.22;99871.00;5069580;28;20496;-72
2022/01/05 09:51:33;;;;;;;9.63;2.50;;;;;;;6.19;65.34;99880.50;5069461;28;20051;-72
2022/01/05 09:54:17;;;;;;;13.25;2.20;;;;;;;5.31;66.72;99899.97;5068523;28;20083;-72
2022/01/05 09:57:02;;;;;;;8.05;2.83;;;;;;;6.35;64.46;99881.75;5068274;28;20047;-72
2022/01/05 09:59:47;;;;;;;7.13;2.45;;;;;;;6.79;63.61;99891.28;5054518;28;20105;-72
2022/01/05 10:02:31;;;;;;;5.90;2.38;;;;;;;6.57;66.96;99884.28;5054090;28;20175;-72
2022/01/05 10:05:16;;;;;;;;;;;;;;;7.98;57.87;99890.38;5068412;28;20047;-72
2022/01/05 10:07:59;;;;;;;9.02;2.10;;;;;;;7.98;56.37;99898.34;5053894;28;19970;-72
2022/01/05 10:10:43;;;;;;;7.03;2.03;;;;;;;6.91;60.31;99895.53;5053996;28;20127;-72
2022/01/05 10:13:27;;;;;;;8.68;2.47;;;;;;;6.30;59.76;99905.13;5069357;28;20384;-72
2022/01/05 10:16:11;;;;;;;9.77;2.60;;;;;;;6.67;62.18;99898.44;5053418;28;20415;-72
2022/01/05 10:18:55;;;;;;;7.30;2.00;;;;;;;6.81;58.92;99905.22;5067949;28;20432;-72
2022/01/05 10:21:39;;;;;;;;;;;;;;;6.27;59.83;99900.06;5069300;28;20056;-71
2022/01/05 10:24:42;;;;;;;4.57;1.73;;;;;;;6.20;61.56;99913.94;5053713;28;19920;-70
2022/01/05 10:27:27;;;;;;;6.22;1.75;;;;;;;6.63;57.63;99920.84;5063901;28;20106;-71
2022/01/05 10:30:14;;;;;;;7.93;2.78;;;;;;;7.51;58.74;99907.00;5055238;28;20095;-72
2022/01/05 10:32:58;;;;;;;5.13;1.70;;;;;;;7.78;58.66;99904.59;5055687;28;20408;-71
2022/01/05 10:35:55;;;;;;;6.03;2.20;;;;;;;7.13;58.87;99914.78;5054284;28;20051;-71
2022/01/05 10:38:53;;;;;;;6.80;2.17;;;;;;;6.77;58.56;99919.72;5054989;28;20090;-67
2022/01/05 10:41:38;;;;;;;6.70;2.42;;;;;;;7.90;60.29;99916.75;5054013;28;20070;-72
2022/01/05 10:44:24;;;;;;;5.82;2.83;;;;;;;7.20;58.41;99913.25;5040014;28;20095;-71
2022/01/05 10:47:08;;;;;;;9.43;2.25;;;;;;;7.58;57.46;99924.06;5055139;28;20064;-72
2022/01/05 10:49:51;;;;;;;9.75;2.42;;;;;;;7.41;57.85;99929.16;5054984;28;20087;-72
2022/01/05 10:52:35;;;;;;;11.18;2.65;;;;;;;6.86;58.49;99916.28;5054834;28;20075;-71
2022/01/05 10:55:21;;;;;;;7.85;2.35;;;;;;;7.79;57.44;99927.47;5039919;28;20051;-72
2022/01/05 10:58:12;;;;;;;5.40;2.13;;;;;;;6.46;59.30;99937.28;5054101;28;20047;-72
2022/01/05 11:00:56;;;;;;;4.30;1.85;;;;;;;6.94;57.04;99929.72;5053955;28;20044;-71
2022/01/05 11:03:41;;;;;;;7.47;2.05;;;;;;;8.28;55.93;99935.47;5053940;28;20406;-72
2022/01/05 11:06:25;;;;;;;5.32;2.33;;;;;;;8.88;52.96;99943.16;5054728;28;20083;-72
2022/01/05 11:09:09;;;;;;;;;;;;;;;7.53;56.94;99962.56;5055174;28;20133;-71
2022/01/05 11:11:53;;;;;;;5.35;2.08;;;;;;;6.71;54.78;99958.16;5054523;28;19920;-72
2022/01/05 11:14:38;;;;;;;7.82;2.03;;;;;;;6.42;57.84;99953.56;5054612;28;20086;-72
2022/01/05 11:17:21;;;;;;;5.18;1.70;;;;;;;6.32;57.09;99949.97;5054226;28;20118;-72
2022/01/05 11:20:09;;;;;;;4.57;1.80;;;;;;;7.77;54.11;99962.13;5053362;28;20114;-72
2022/01/05 11:22:53;;;;;;;4.95;1.45;;;;;;;7.35;54.51;99959.69;5053501;28;20056;-72
2022/01/05 11:25:38;;;;;;;5.97;2.05;;;;;;;6.84;58.71;99950.84;5053566;28;20495;-72
2022/01/05 11:28:23;;;;;;;3.83;1.67;;;;;;;7.55;54.62;99946.38;5053083;28;20071;-73
2022/01/05 11:31:07;;;;;;;8.05;2.20;;;;;;;6.66;54.79;99948.91;5053113;28;20110;-72
2022/01/05 11:33:51;;;;;;;5.65;2.00;;;;;;;6.61;56.58;99946.63;5038999;28;20055;-71
2022/01/05 11:36:35;;;;;;;7.72;2.10;;;;;;;6.67;57.06;99956.69;5053929;28;20128;-72
2022/01/05 11:39:20;;;;;;;7.38;2.03;;;;;;;5.92;58.66;99955.00;5052439;28;20052;-70
2022/01/05 11:42:07;;;;;;;7.22;2.10;;;;;;;5.42;59.94;99968.69;5053027;28;20056;-70
2022/01/05 11:44:57;;;;;;;10.18;1.95;;;;;;;5.42;59.38;99968.69;5053038;28;20052;-71
2022/01/05 11:47:41;;;;;;;8.82;1.92;;;;;;;5.02;62.23;99942.84;5053001;28;20048;-72
2022/01/05 11:50:26;;;;;;;5.88;2.17;;;;;;;5.61;61.82;99952.22;5053390;28;20099;-73
2022/01/05 11:53:11;;;;;;;8.02;2.35;;;;;;;5.91;61.13;99944.53;5052882;28;20484;-73
2022/01/05 11:55:58;;;;;;;6.63;2.03;;;;;;;6.59;61.18;99945.06;5053778;28;20044;-72
2022/01/05 11:58:59;;;;;;;8.85;2.20;;;;;;;6.29;61.57;99948.44;5054019;28;20056;-72
2022/01/05 12:01:57;;;;;;;7.25;2.63;;;;;;;6.00;63.18;99949.97;5052912;28;20098;-72
2022/01/05 12:04:56;;;;;;;9.35;2.53;;;;;;;6.96;61.04;99983.44;5038757;28;20047;-72
2022/01/05 12:07:48;;;;;;;5.35;1.80;;;;;;;6.44;58.08;99952.47;5053527;28;20047;-73
2022/01/05 12:10:51;;;;;;;4.00;1.80;;;;;;;7.19;59.14;99946.03;5052520;28;20047;-73
2022/01/05 12:13:36;;;;;;;11.18;2.58;;;;;;;6.99;61.32;99935.47;5052576;28;20075;-72
2022/01/05 12:16:19;;;;;;;11.63;2.15;;;;;;;7.17;59.23;99955.94;5052064;28;20055;-72
2022/01/05 12:19:05;;;;;;;8.13;2.38;;;;;;;7.01;59.36;99950.28;5053319;28;20059;-72
2022/01/05 12:21:51;;;;;;;8.10;2.13;;;;;;;7.04;59.40;99960.63;5053334;28;20137;-73
2022/01/05 12:24:56;;;;;;;7.03;1.98;;;;;;;6.56;57.84;99964.69;5052450;28;20044;-73
2022/01/05 12:27:53;;;;;;;6.47;2.20;;;;;;;6.96;56.47;99967.53;5053836;28;20079;-71
2022/01/05 12:30:38;;;;;;;7.95;2.20;;;;;;;6.72;57.52;99969.56;5038540;28;20047;-73
2022/01/05 12:33:22;;;;;;;4.97;2.00;;;;;;;6.42;56.99;99977.38;5053291;28;20048;-72
2022/01/05 12:36:08;;;;;;;7.75;2.35;;;;;;;6.41;58.70;99965.97;5053789;28;20193;-72
2022/01/05 12:38:55;;;;;;;10.05;2.05;;;;;;;6.68;57.34;99957.56;5052551;28;20504;-71
2022/01/05 12:41:43;;;;;;;8.70;1.85;;;;;;;6.42;57.90;99969.44;5052855;28;20047;-72
2022/01/05 12:44:34;;;;;;;12.77;3.08;;;;;;;6.04;58.36;99969.91;5054131;28;20064;-71
2022/01/05 12:47:34;;;;;;;8.10;2.30;;;;;;;5.61;61.76;99978.69;5053442;28;20377;-73
2022/01/05 12:50:18;;;;;;;5.97;2.13;;;;;;;4.99;63.61;99975.59;5037537;28;20499;-70
2022/01/05 12:53:02;;;;;;;6.32;2.25;;;;;;;4.93;64.61;99969.09;5053080;28;20124;-73
2022/01/05 12:55:46;;;;;;;5.15;1.60;;;;;;;4.76;65.57;99953.69;5052997;28;20044;-72